Time,TemperatureF,DewpointF,PressureIn,WindDirection,WindDirectionDegrees,WindSpeedMPH,WindSpeedGustMPH,Humidity,HourlyPrecipIn,Conditions,Clouds,dailyrainin,SoftwareType,DateUTC
2014-04-19 02:00:00,30.0,19.0,-100.00,WSW,244,13.0,21.0,63,-99.99,,,-99.99,,2014-04-19 08:00:00,
2014-04-19 02:52:00,30.0,19.0,-100.00,WSW,244,13.0,21.0,63,-99.99,,,-99.99,,2014-04-19 08:52:00,
2014-04-19 04:00:00,29.0,21.0,-100.00,SSW,200,5.0,11.0,70,-99.99,,,-99.99,,2014-04-19 10:00:00,
2014-04-19 04:54:00,29.0,21.0,-100.00,SSW,200,5.0,11.0,70,-99.99,,,-99.99,,2014-04-19 10:54:00,
2014-04-19 07:00:00,28.0,23.0,-100.00,WSW,247,6.0,10.0,78,-99.99,,,-99.99,,2014-04-19 13:00:00,
2014-04-19 07:52:00,28.0,23.0,-100.00,WSW,247,6.0,10.0,78,-99.99,,,-99.99,,2014-04-19 13:52:00,
2014-04-19 08:00:00,29.0,23.0,-100.00,SW,216,5.0,8.0,78,-99.99,,,-99.99,,2014-04-19 14:00:00,
2014-04-19 08:52:00,29.0,23.0,-100.00,SW,216,5.0,8.0,78,-99.99,,,-99.99,,2014-04-19 14:52:00,
2014-04-19 10:00:00,29.0,26.0,-100.00,West,277,2.0,3.0,86,-99.99,,,-99.99,,2014-04-19 16:00:00,
2014-04-19 10:53:00,29.0,26.0,-100.00,West,277,2.0,3.0,86,-99.99,,,-99.99,,2014-04-19 16:53:00,
2014-04-19 11:00:00,31.0,27.0,-100.00,SW,214,4.0,9.0,83,-99.99,,,-99.99,,2014-04-19 17:00:00,
2014-04-19 11:52:00,31.0,27.0,-100.00,SW,214,4.0,9.0,83,-99.99,,,-99.99,,2014-04-19 17:52:00,
2014-04-19 12:00:00,32.0,28.0,-100.00,WSW,253,3.0,8.0,86,-99.99,,,-99.99,,2014-04-19 18:00:00,
2014-04-19 12:52:00,32.0,28.0,-100.00,WSW,253,3.0,8.0,86,-99.99,,,-99.99,,2014-04-19 18:52:00,
2014-04-19 13:00:00,37.0,26.0,-100.00,WSW,247,4.0,9.0,65,-99.99,,,-99.99,,2014-04-19 19:00:00,
2014-04-19 13:52:00,37.0,26.0,-100.00,WSW,247,4.0,9.0,65,-99.99,,,-99.99,,2014-04-19 19:52:00,
2014-04-19 15:00:00,34.0,29.0,-100.00,SW,218,9.0,19.0,80,-99.99,,,-99.99,,2014-04-19 21:00:00,
2014-04-19 15:54:00,34.0,29.0,-100.00,SW,218,9.0,19.0,80,-99.99,,,-99.99,,2014-04-19 21:54:00,
2014-04-19 17:00:00,34.0,29.0,-100.00,WNW,284,5.0,14.0,82,-99.99,,,-99.99,,2014-04-19 23:00:00,
2014-04-19 17:53:00,34.0,29.0,-100.00,WNW,284,5.0,14.0,82,-99.99,,,-99.99,,2014-04-19 23:53:00,